createdAt,value
2023-04-18T00:01:01.844Z,17.53
2023-04-18T00:03:30.031Z,18.60
2023-04-18T00:05:58.018Z,17.80
2023-04-18T00:08:24.415Z,20.27
2023-04-18T00:10:50.736Z,20.53
2023-04-18T00:13:18.350Z,21.00
2023-04-18T00:15:46.283Z,20.63
2023-04-18T00:18:15.903Z,21.80
2023-04-18T00:20:42.260Z,18.27
2023-04-18T00:23:08.624Z,22.50
2023-04-18T00:25:35.010Z,21.30
2023-04-18T00:28:01.336Z,17.77
2023-04-18T00:30:28.264Z,21.17
2023-04-18T00:32:54.663Z,20.50
2023-04-18T00:35:21.085Z,17.50
2023-04-18T00:37:47.406Z,15.83
2023-04-18T00:40:13.802Z,19.03
2023-04-18T00:42:40.216Z,20.50
2023-04-18T00:45:06.858Z,19.03
2023-04-18T00:47:34.267Z,18.50
2023-04-18T00:50:00.683Z,20.50
2023-04-18T00:52:28.135Z,19.40
2023-04-18T00:54:54.756Z,16.00
2023-04-18T00:57:22.146Z,20.70
2023-04-18T00:59:48.476Z,17.27
2023-04-18T01:02:15.044Z,14.20
2023-04-18T01:04:42.864Z,16.77
2023-04-18T01:07:09.750Z,18.20
2023-04-18T01:09:36.603Z,17.50
2023-04-18T01:12:04.049Z,19.67
2023-04-18T01:14:30.821Z,14.33
2023-04-18T01:16:58.682Z,16.10
2023-04-18T01:19:26.257Z,14.77
2023-04-18T01:21:54.147Z,11.37
2023-04-18T01:24:20.440Z,14.27
2023-04-18T01:26:49.529Z,13.20
2023-04-18T01:29:15.865Z,15.77
2023-04-18T01:31:42.440Z,10.13
2023-04-18T01:34:09.091Z,13.27
2023-04-18T01:36:36.063Z,11.60
2023-04-18T01:39:02.466Z,11.73
2023-04-18T01:41:32.283Z,8.10
2023-04-18T01:43:59.161Z,8.57
2023-04-18T01:46:25.516Z,8.30
2023-04-18T01:48:51.948Z,7.53
2023-04-18T01:51:18.364Z,9.17
2023-04-18T01:53:44.752Z,9.53
2023-04-18T01:56:11.115Z,8.93
2023-04-18T01:58:37.561Z,6.93
2023-04-18T02:01:04.191Z,11.80
2023-04-18T02:03:30.696Z,9.93
2023-04-18T02:05:57.155Z,10.40
2023-04-18T02:08:23.464Z,10.77
2023-04-18T02:10:49.890Z,10.03
2023-04-18T02:13:16.286Z,9.70
2023-04-18T02:15:43.794Z,12.83
2023-04-18T02:18:11.633Z,11.13
2023-04-18T02:20:38.488Z,10.67
2023-04-18T02:23:05.006Z,10.83
2023-04-18T02:25:31.323Z,13.03
2023-04-18T02:27:57.885Z,13.83
2023-04-18T02:30:27.225Z,10.43
2023-04-18T02:32:59.687Z,11.70
2023-04-18T02:35:26.923Z,10.87
2023-04-18T02:37:53.308Z,10.93
2023-04-18T02:40:19.727Z,10.30
2023-04-18T02:42:46.216Z,13.23
2023-04-18T02:45:12.639Z,13.03
2023-04-18T02:47:51.065Z,9.87
2023-04-18T02:50:17.957Z,11.73
2023-04-18T02:52:44.295Z,9.80
2023-04-18T02:55:10.723Z,9.17
2023-04-18T02:57:37.128Z,13.10
2023-04-18T03:00:04.204Z,10.77
2023-04-18T03:02:30.685Z,10.50
2023-04-18T03:04:57.067Z,10.93
2023-04-18T03:07:23.361Z,9.50
2023-04-18T03:09:49.773Z,15.63
2023-04-18T03:12:16.157Z,12.00
2023-04-18T03:14:44.490Z,13.17
2023-04-18T03:17:11.208Z,10.80
2023-04-18T03:19:37.590Z,12.17
2023-04-18T03:22:03.963Z,13.73
2023-04-18T03:24:30.311Z,11.87
2023-04-18T03:26:56.793Z,13.07
2023-04-18T03:29:23.114Z,12.63
2023-04-18T03:31:49.634Z,11.43
2023-04-18T03:34:16.080Z,12.33
2023-04-18T03:36:42.547Z,10.57
2023-04-18T03:39:08.891Z,9.23
2023-04-18T03:41:35.326Z,8.90
2023-04-18T03:44:01.641Z,13.97
2023-04-18T03:46:28.092Z,9.53
2023-04-18T03:48:54.528Z,11.90
2023-04-18T03:51:20.991Z,12.60
2023-04-18T03:53:47.412Z,11.80
2023-04-18T03:56:13.762Z,10.77
2023-04-18T03:58:40.107Z,11.73
2023-04-18T04:01:07.755Z,12.03
2023-04-18T04:03:34.109Z,11.43
2023-04-18T04:06:00.952Z,14.60
2023-04-18T04:08:28.307Z,11.17
2023-04-18T04:10:54.945Z,14.70
2023-04-18T04:13:21.310Z,15.27
2023-04-18T04:15:47.650Z,13.97
2023-04-18T04:18:14.109Z,11.03
2023-04-18T04:20:40.541Z,15.37
2023-04-18T04:23:07.039Z,12.20
2023-04-18T04:25:34.164Z,15.57
2023-04-18T04:28:01.546Z,13.53
2023-04-18T04:30:28.674Z,14.93
2023-04-18T04:32:55.173Z,12.50
2023-04-18T04:35:21.563Z,15.83
2023-04-18T04:37:48.031Z,16.97
2023-04-18T04:40:15.669Z,11.67
2023-04-18T04:42:42.284Z,13.90
2023-04-18T04:45:09.445Z,16.63
2023-04-18T04:47:36.625Z,13.90
2023-04-18T04:50:04.298Z,13.63
2023-04-18T04:52:32.737Z,15.40
2023-04-18T04:54:59.091Z,13.40
2023-04-18T04:57:25.553Z,14.63
2023-04-18T04:59:51.899Z,16.50
2023-04-18T05:02:18.272Z,14.03
2023-04-18T05:04:44.766Z,14.00
2023-04-18T05:07:11.183Z,15.33
2023-04-18T05:09:37.569Z,13.00
2023-04-18T05:12:04.110Z,15.47
2023-04-18T05:14:31.007Z,12.67
2023-04-18T05:16:57.533Z,14.43
2023-04-18T05:19:23.952Z,15.47
2023-04-18T05:21:50.241Z,12.57
2023-04-18T05:24:16.800Z,14.97
2023-04-18T05:26:43.491Z,15.40
2023-04-18T05:29:09.925Z,13.83
2023-04-18T05:31:37.313Z,16.73
2023-04-18T05:34:03.653Z,15.03
2023-04-18T05:36:30.046Z,15.33
2023-04-18T05:38:56.381Z,16.63
2023-04-18T05:41:23.034Z,13.30
2023-04-18T05:43:58.127Z,16.07
2023-04-18T05:46:30.952Z,16.30
2023-04-18T05:48:57.279Z,14.80
2023-04-18T05:51:23.622Z,14.70
2023-04-18T05:53:49.913Z,12.37
2023-04-18T05:56:16.213Z,14.50
2023-04-18T05:58:42.565Z,14.70
2023-04-18T06:01:09.676Z,12.90
2023-04-18T06:03:36.544Z,12.90
2023-04-18T06:06:03.331Z,13.57
2023-04-18T06:08:29.665Z,14.90
2023-04-18T06:10:55.992Z,14.47
2023-04-18T06:13:22.327Z,17.20
2023-04-18T06:15:48.686Z,13.33
2023-04-18T06:18:15.079Z,15.60
2023-04-18T06:20:43.879Z,12.30
2023-04-18T06:23:10.332Z,15.03
2023-04-18T06:25:36.682Z,12.93
2023-04-18T06:28:03.084Z,13.27
2023-04-18T06:30:29.401Z,10.57
2023-04-18T06:32:55.777Z,16.70
2023-04-18T06:35:22.487Z,13.93
2023-04-18T06:37:49.656Z,11.80
2023-04-18T06:40:15.960Z,13.43
2023-04-18T06:42:43.009Z,12.43
2023-04-18T06:45:11.886Z,13.60
2023-04-18T06:47:39.104Z,13.30
2023-04-18T06:50:06.518Z,13.83
2023-04-18T06:52:32.990Z,11.73
2023-04-18T06:54:59.413Z,12.67
2023-04-18T06:57:26.052Z,14.87
2023-04-18T06:59:52.364Z,12.27
2023-04-18T07:02:19.017Z,13.30
2023-04-18T07:04:45.481Z,12.10
2023-04-18T07:07:11.986Z,12.40
2023-04-18T07:09:38.291Z,13.00
2023-04-18T07:12:04.770Z,13.43
2023-04-18T07:14:32.906Z,13.63
2023-04-18T07:17:00.936Z,13.17
2023-04-18T07:19:27.280Z,11.53
2023-04-18T07:21:54.876Z,16.63
2023-04-18T07:24:23.525Z,12.33
2023-04-18T07:26:52.041Z,11.83
2023-04-18T07:29:19.790Z,11.63
2023-04-18T07:31:46.438Z,12.50
2023-04-18T07:34:14.082Z,12.60
2023-04-18T07:36:40.835Z,12.60
2023-04-18T07:39:07.300Z,12.17
2023-04-18T07:41:34.341Z,13.23
2023-04-18T07:44:03.711Z,12.60
2023-04-18T07:46:32.323Z,13.17
2023-04-18T07:48:59.115Z,14.13
2023-04-18T07:51:31.380Z,15.33
2023-04-18T07:53:58.659Z,12.50
2023-04-18T07:56:25.887Z,10.90
2023-04-18T07:58:52.593Z,13.37
2023-04-18T08:01:21.015Z,14.53
2023-04-18T08:03:50.219Z,11.83
2023-04-18T08:06:17.623Z,15.30
2023-04-18T08:08:44.109Z,10.97
2023-04-18T08:11:10.685Z,11.63
2023-04-18T08:13:37.202Z,12.40
2023-04-18T08:16:03.689Z,12.33
2023-04-18T08:18:30.176Z,11.93
2023-04-18T08:20:56.693Z,11.20
2023-04-18T08:23:23.048Z,11.83
2023-04-18T08:25:49.453Z,15.50
2023-04-18T08:28:15.806Z,11.30
2023-04-18T08:30:43.168Z,14.17
2023-04-18T08:33:09.552Z,13.77
2023-04-18T08:35:35.934Z,13.00
2023-04-18T08:38:05.264Z,11.30
2023-04-18T08:40:31.706Z,11.37
2023-04-18T08:42:58.898Z,11.10
2023-04-18T08:45:26.204Z,11.47
2023-04-18T08:47:53.427Z,10.10
2023-04-18T08:50:19.831Z,10.93
2023-04-18T08:52:49.616Z,10.63
2023-04-18T08:55:16.477Z,10.47
2023-04-18T08:57:43.379Z,9.60
2023-04-18T09:00:11.635Z,10.67
2023-04-18T09:02:42.489Z,10.40
2023-04-18T09:05:12.194Z,10.23
2023-04-18T09:07:38.632Z,10.97
2023-04-18T09:10:05.134Z,10.53
2023-04-18T09:12:32.724Z,9.13
2023-04-18T09:15:20.830Z,8.57
2023-04-18T09:17:51.401Z,9.70
2023-04-18T09:20:43.687Z,10.40
2023-04-18T09:23:11.580Z,9.43
2023-04-18T09:25:39.821Z,9.50
2023-04-18T09:28:34.310Z,13.03
2023-04-18T09:31:12.177Z,12.73
2023-04-18T09:33:42.923Z,10.23
2023-04-18T09:36:27.260Z,10.00
2023-04-18T09:38:56.612Z,8.70
2023-04-18T09:41:23.692Z,9.87
2023-04-18T09:43:50.193Z,15.40
2023-04-18T09:46:17.768Z,9.23
2023-04-18T09:48:44.364Z,9.30
2023-04-18T09:51:11.754Z,11.77
2023-04-18T09:53:39.555Z,12.57
2023-04-18T09:56:13.563Z,11.73
2023-04-18T09:58:41.113Z,12.10
2023-04-18T10:01:07.974Z,9.57
2023-04-18T10:03:41.351Z,12.57
2023-04-18T10:06:07.968Z,11.07
2023-04-18T10:08:34.519Z,10.37
2023-04-18T10:11:01.393Z,8.37
2023-04-18T10:13:28.633Z,11.43
2023-04-18T10:15:55.447Z,10.07
2023-04-18T10:18:24.971Z,9.37
2023-04-18T10:21:00.471Z,11.83
2023-04-18T10:23:34.638Z,9.60
2023-04-18T10:26:01.729Z,9.63
2023-04-18T10:28:48.007Z,9.77
2023-04-18T10:31:16.164Z,9.73
2023-04-18T10:34:00.618Z,8.80
2023-04-18T10:36:30.303Z,9.07
2023-04-18T10:39:00.897Z,9.83
2023-04-18T10:41:28.440Z,7.63
2023-04-18T10:44:10.118Z,10.77
2023-04-18T10:46:37.424Z,9.07
2023-04-18T10:49:24.005Z,10.67
2023-04-18T10:51:54.553Z,10.27
2023-04-18T10:54:37.513Z,9.33
2023-04-18T10:57:04.696Z,11.53
2023-04-18T10:59:32.033Z,9.37
2023-04-18T11:02:16.953Z,8.80
2023-04-18T11:04:50.163Z,7.37
2023-04-18T11:07:16.508Z,8.93
2023-04-18T11:09:51.320Z,8.83
2023-04-18T11:12:17.622Z,9.03
2023-04-18T11:14:45.237Z,8.43
2023-04-18T11:17:18.160Z,10.57
2023-04-18T11:19:44.702Z,11.27
2023-04-18T11:22:11.538Z,8.87
2023-04-18T11:24:37.915Z,9.50
2023-04-18T11:27:04.368Z,10.23
2023-04-18T11:29:30.758Z,9.97
2023-04-18T11:31:58.594Z,9.53
2023-04-18T11:34:29.341Z,7.40
2023-04-18T11:36:55.825Z,11.03
2023-04-18T11:39:22.391Z,8.80
2023-04-18T11:41:50.575Z,8.00
2023-04-18T11:44:17.959Z,8.43
2023-04-18T11:46:45.385Z,8.60
2023-04-18T11:49:27.743Z,10.83
2023-04-18T11:51:54.375Z,7.17
2023-04-18T11:54:42.886Z,9.27
2023-04-18T11:57:28.240Z,7.73
2023-04-18T11:59:56.689Z,6.27
2023-04-18T12:02:24.366Z,9.80
2023-04-18T12:04:55.152Z,7.80
2023-04-18T12:07:32.960Z,9.07
2023-04-18T12:09:59.305Z,9.03
2023-04-18T12:12:25.837Z,8.43
2023-04-18T12:15:06.991Z,8.27
2023-04-18T12:17:36.096Z,12.10
2023-04-18T12:20:03.969Z,11.10
2023-04-18T12:22:59.665Z,8.93
2023-04-18T12:25:29.048Z,10.60
2023-04-18T12:28:15.283Z,11.27
2023-04-18T12:30:42.023Z,9.17
2023-04-18T12:33:09.231Z,10.70
2023-04-18T12:35:36.101Z,12.67
2023-04-18T12:38:02.883Z,10.03
2023-04-18T12:40:29.817Z,11.23
2023-04-18T12:42:56.471Z,11.13
2023-04-18T12:45:23.419Z,11.23
2023-04-18T12:47:51.209Z,12.70
2023-04-18T12:50:22.349Z,10.87
2023-04-18T12:52:48.911Z,11.70
2023-04-18T12:55:15.598Z,11.90
2023-04-18T12:57:42.724Z,12.57
2023-04-18T13:00:13.555Z,13.50
2023-04-18T13:02:44.372Z,13.23
2023-04-18T13:05:14.016Z,11.93
2023-04-18T13:07:40.931Z,12.77
2023-04-18T13:10:11.841Z,13.07
2023-04-18T13:12:39.114Z,13.93
2023-04-18T13:15:06.874Z,13.23
2023-04-18T13:17:33.819Z,12.87
2023-04-18T13:20:00.848Z,13.87
2023-04-18T13:22:28.458Z,13.80
2023-04-18T13:24:54.835Z,13.00
2023-04-18T13:27:21.262Z,14.03
2023-04-18T13:29:47.585Z,14.07
2023-04-18T13:32:14.007Z,14.10
2023-04-18T13:34:44.703Z,16.90
2023-04-18T13:37:11.324Z,14.40
2023-04-18T13:39:37.708Z,12.97
2023-04-18T13:42:04.505Z,13.67
2023-04-18T13:44:31.247Z,15.50
2023-04-18T13:46:57.805Z,13.63
2023-04-18T13:49:24.146Z,12.60
2023-04-18T13:51:53.414Z,14.20
2023-04-18T13:54:20.180Z,15.17
2023-04-18T13:56:46.582Z,17.33
2023-04-18T13:59:13.212Z,16.10
2023-04-18T14:01:39.850Z,15.27
2023-04-18T14:04:06.704Z,16.03
2023-04-18T14:06:33.383Z,15.80
2023-04-18T14:08:59.777Z,20.20
2023-04-18T14:11:26.169Z,16.07
2023-04-18T14:13:52.529Z,15.67
2023-04-18T14:16:22.143Z,14.33
2023-04-18T14:18:48.604Z,17.60
2023-04-18T14:21:15.114Z,16.83
2023-04-18T14:23:41.535Z,15.53
2023-04-18T14:26:09.191Z,15.93
2023-04-18T14:28:35.731Z,16.37
2023-04-18T14:31:03.001Z,13.70
2023-04-18T14:33:29.368Z,13.50
2023-04-18T14:35:55.692Z,15.67
2023-04-18T14:38:22.008Z,15.53
2023-04-18T14:40:48.282Z,18.47
2023-04-18T14:43:14.601Z,17.20
2023-04-18T14:45:40.910Z,13.80
2023-04-18T14:48:08.817Z,15.53
2023-04-18T14:50:38.540Z,16.93
2023-04-18T14:53:05.544Z,15.70
2023-04-18T14:55:32.333Z,15.57
2023-04-18T14:57:58.632Z,13.87
2023-04-18T15:00:25.225Z,15.17
2023-04-18T15:02:51.797Z,15.93
2023-04-18T15:05:19.622Z,14.70
2023-04-18T15:07:46.948Z,16.57
2023-04-18T15:10:15.046Z,15.83
2023-04-18T15:12:42.522Z,16.83
2023-04-18T15:15:09.146Z,13.00
2023-04-18T15:17:35.899Z,16.67
2023-04-18T15:20:05.532Z,12.80
2023-04-18T15:22:31.865Z,11.87
2023-04-18T15:24:58.206Z,14.80
2023-04-18T15:27:24.510Z,12.00
2023-04-18T15:29:50.906Z,12.53
2023-04-18T15:32:17.991Z,11.87
2023-04-18T15:34:44.618Z,11.93
2023-04-18T15:37:11.166Z,15.00
2023-04-18T15:39:38.533Z,13.70
2023-04-18T15:42:05.815Z,13.00
2023-04-18T15:44:32.203Z,13.83
2023-04-18T15:47:01.039Z,15.90
2023-04-18T15:49:27.690Z,14.33
2023-04-18T15:51:54.036Z,14.87
2023-04-18T15:54:20.674Z,20.70
2023-04-18T15:56:47.062Z,16.20
2023-04-18T15:59:13.792Z,14.53
2023-04-18T16:01:40.635Z,14.03
2023-04-18T16:04:07.246Z,14.33
2023-04-18T16:06:33.738Z,13.23
2023-04-18T16:09:00.169Z,19.77
2023-04-18T16:11:27.525Z,12.73
2023-04-18T16:13:54.617Z,15.17
2023-04-18T16:16:21.088Z,15.47
2023-04-18T16:18:47.520Z,15.73
2023-04-18T16:21:14.607Z,13.57
2023-04-18T16:23:41.103Z,14.00
2023-04-18T16:26:07.535Z,16.03
2023-04-18T16:28:37.704Z,15.93
2023-04-18T16:31:05.427Z,12.70
2023-04-18T16:33:31.964Z,15.30
2023-04-18T16:35:59.028Z,12.73
2023-04-18T16:38:27.256Z,14.03
2023-04-18T16:41:01.591Z,12.63
2023-04-18T16:43:28.839Z,14.37
2023-04-18T16:45:58.016Z,13.87
2023-04-18T16:48:24.705Z,15.23
2023-04-18T16:50:51.211Z,14.13
2023-04-18T16:53:17.823Z,13.77
2023-04-18T16:55:44.178Z,16.07
2023-04-18T16:58:11.158Z,15.33
2023-04-18T17:00:38.485Z,14.13
2023-04-18T17:03:07.283Z,14.83
2023-04-18T17:05:33.924Z,16.50
2023-04-18T17:08:00.440Z,14.67
2023-04-18T17:10:28.647Z,13.30
2023-04-18T17:12:55.138Z,14.83
2023-04-18T17:15:21.819Z,15.33
2023-04-18T17:17:48.288Z,12.63
2023-04-18T17:20:16.020Z,11.60
2023-04-18T17:22:42.326Z,13.00
2023-04-18T17:25:09.252Z,13.03
2023-04-18T17:27:35.584Z,15.50
2023-04-18T17:30:01.878Z,11.10
2023-04-18T17:32:28.588Z,13.17
2023-04-18T17:34:55.726Z,12.13
2023-04-18T17:37:22.421Z,12.77
2023-04-18T17:39:49.856Z,11.07
2023-04-18T17:42:16.824Z,12.07
2023-04-18T17:44:43.317Z,10.77
2023-04-18T17:47:09.898Z,12.00
2023-04-18T17:49:36.373Z,11.40
2023-04-18T17:52:03.190Z,10.13
2023-04-18T17:54:29.688Z,13.63
2023-04-18T17:56:56.717Z,11.37
2023-04-18T17:59:23.227Z,10.30
2023-04-18T18:01:49.879Z,10.23
2023-04-18T18:04:16.732Z,10.87
2023-04-18T18:06:53.739Z,11.73
2023-04-18T18:09:20.209Z,10.30
2023-04-18T18:11:46.503Z,12.27
2023-04-18T18:14:13.333Z,9.53
2023-04-18T18:16:39.792Z,8.77
2023-04-18T18:19:07.507Z,10.13
2023-04-18T18:21:33.861Z,12.43
2023-04-18T18:24:00.189Z,10.23
2023-04-18T18:26:27.629Z,10.83
2023-04-18T18:28:53.988Z,11.10
2023-04-18T18:31:22.808Z,10.30
2023-04-18T18:33:49.166Z,11.77
2023-04-18T18:36:15.727Z,9.70
2023-04-18T18:38:43.373Z,12.33
2023-04-18T18:41:09.772Z,11.43
2023-04-18T18:43:36.163Z,9.80
2023-04-18T18:46:02.625Z,10.27
2023-04-18T18:48:29.028Z,10.00
2023-04-18T18:50:56.554Z,11.47
2023-04-18T18:53:23.022Z,12.70
2023-04-18T18:55:49.352Z,11.27
2023-04-18T18:58:15.743Z,13.23
2023-04-18T19:00:42.047Z,9.57
2023-04-18T19:03:08.777Z,10.27
2023-04-18T19:05:35.736Z,10.40
2023-04-18T19:08:04.776Z,14.33
2023-04-18T19:10:31.152Z,9.57
2023-04-18T19:12:57.711Z,12.50
2023-04-18T19:15:24.461Z,11.60
2023-04-18T19:17:51.313Z,12.20
2023-04-18T19:20:18.120Z,12.07
2023-04-18T19:22:44.470Z,15.40
2023-04-18T19:25:10.838Z,14.03
2023-04-18T19:27:37.229Z,13.40
2023-04-18T19:30:03.909Z,16.17
2023-04-18T19:32:31.890Z,15.27
2023-04-18T19:34:58.864Z,14.17
2023-04-18T19:37:25.273Z,11.77
2023-04-18T19:39:51.630Z,12.03
2023-04-18T19:42:18.103Z,9.90
2023-04-18T19:44:44.786Z,10.00
2023-04-18T19:47:11.102Z,10.07
2023-04-18T19:49:37.831Z,9.83
2023-04-18T19:52:04.314Z,10.97
2023-04-18T19:54:36.950Z,11.10
2023-04-18T19:57:04.636Z,9.90
2023-04-18T19:59:31.073Z,10.03
2023-04-18T20:01:58.628Z,8.97
2023-04-18T20:04:31.528Z,11.37
2023-04-18T20:06:58.153Z,10.70
2023-04-18T20:09:24.817Z,12.03
2023-04-18T20:11:51.222Z,10.70
2023-04-18T20:14:17.992Z,12.17
2023-04-18T20:16:45.837Z,11.90
2023-04-18T20:19:12.917Z,10.27
2023-04-18T20:21:39.301Z,10.30
2023-04-18T20:24:06.684Z,12.93
2023-04-18T20:26:39.016Z,13.10
2023-04-18T20:29:05.332Z,13.27
2023-04-18T20:31:32.068Z,11.57
2023-04-18T20:33:58.416Z,12.17
2023-04-18T20:36:25.916Z,12.27
2023-04-18T20:38:52.203Z,14.63
2023-04-18T20:41:20.758Z,11.07
2023-04-18T20:43:47.072Z,14.23
2023-04-18T20:46:14.045Z,11.10
2023-04-18T20:48:40.509Z,10.70
2023-04-18T20:51:07.039Z,11.73
2023-04-18T20:53:33.417Z,11.43
2023-04-18T20:56:00.859Z,10.87
2023-04-18T20:58:27.187Z,10.10
2023-04-18T21:00:53.688Z,13.77
2023-04-18T21:03:20.129Z,11.57
2023-04-18T21:05:46.698Z,10.57
2023-04-18T21:08:13.035Z,12.37
2023-04-18T21:10:40.414Z,14.50
2023-04-18T21:13:06.748Z,8.13
2023-04-18T21:15:35.273Z,9.27
2023-04-18T21:18:01.632Z,10.37
2023-04-18T21:20:28.100Z,10.53
2023-04-18T21:22:54.414Z,9.93
2023-04-18T21:25:21.372Z,10.03
2023-04-18T21:27:47.921Z,10.33
2023-04-18T21:30:14.333Z,10.57
2023-04-18T21:32:40.750Z,10.40
2023-04-18T21:35:07.211Z,11.50
2023-04-18T21:37:33.631Z,10.43
2023-04-18T21:40:00.282Z,7.77
2023-04-18T21:42:26.894Z,10.57
2023-04-18T21:44:54.828Z,10.40
2023-04-18T21:47:21.417Z,11.83
2023-04-18T21:49:49.071Z,8.23
2023-04-18T21:52:15.500Z,11.57
2023-04-18T21:54:41.942Z,9.10
2023-04-18T21:57:08.281Z,7.73
2023-04-18T21:59:34.830Z,9.13
2023-04-18T22:02:01.243Z,10.43
2023-04-18T22:04:27.797Z,8.90
2023-04-18T22:06:54.497Z,9.83
2023-04-18T22:09:21.342Z,7.60
2023-04-18T22:11:48.025Z,10.10
2023-04-18T22:14:18.980Z,12.13
2023-04-18T22:16:45.360Z,7.87
2023-04-18T22:19:11.879Z,10.40
2023-04-18T22:21:38.235Z,11.10
2023-04-18T22:24:04.698Z,10.87
2023-04-18T22:26:31.053Z,8.43
2023-04-18T22:28:57.374Z,10.07
2023-04-18T22:31:23.741Z,11.80
2023-04-18T22:33:50.191Z,11.93
2023-04-18T22:36:16.636Z,10.67
2023-04-18T22:38:42.989Z,8.43
2023-04-18T22:41:09.296Z,8.57
2023-04-18T22:43:35.794Z,8.40
2023-04-18T22:46:02.273Z,9.63
2023-04-18T22:48:28.652Z,10.30
2023-04-18T22:50:55.302Z,9.20
2023-04-18T22:53:21.590Z,9.20
2023-04-18T22:55:47.938Z,8.73
2023-04-18T22:58:14.324Z,8.73
2023-04-18T23:00:40.756Z,8.53
2023-04-18T23:03:07.237Z,8.83
2023-04-18T23:05:34.303Z,8.37
2023-04-18T23:08:00.883Z,8.80
2023-04-18T23:10:27.257Z,10.07
2023-04-18T23:12:53.589Z,10.63
2023-04-18T23:15:22.693Z,7.93
2023-04-18T23:17:51.239Z,10.20
2023-04-18T23:20:17.583Z,7.50
2023-04-18T23:22:43.964Z,9.63
2023-04-18T23:25:10.302Z,9.70
2023-04-18T23:27:38.653Z,7.73
2023-04-18T23:30:05.238Z,7.53
2023-04-18T23:32:31.661Z,8.30
2023-04-18T23:34:58.018Z,9.23
2023-04-18T23:37:24.352Z,8.17
2023-04-18T23:39:50.654Z,7.83
2023-04-18T23:42:16.980Z,8.13
2023-04-18T23:44:43.377Z,10.33
2023-04-18T23:47:09.865Z,8.70
2023-04-18T23:49:36.244Z,7.40
2023-04-18T23:52:02.583Z,8.47
2023-04-18T23:54:28.959Z,8.50
2023-04-18T23:56:55.266Z,9.63
2023-04-18T23:59:21.700Z,8.20
